createdAt,value
2022-10-13T00:01:15.764Z,3.65
2022-10-13T00:03:47.619Z,2.72
2022-10-13T00:06:20.930Z,3.20
2022-10-13T00:08:49.794Z,3.17
2022-10-13T00:11:19.663Z,2.90
2022-10-13T00:13:48.412Z,3.22
2022-10-13T00:16:18.477Z,3.17
2022-10-13T00:18:46.457Z,3.30
2022-10-13T00:21:16.750Z,3.40
2022-10-13T00:23:46.152Z,3.65
2022-10-13T00:28:51.308Z,3.28
2022-10-13T00:31:31.887Z,3.53
2022-10-13T00:34:01.889Z,3.33
2022-10-13T00:36:30.002Z,3.28
2022-10-13T00:38:58.228Z,3.30
2022-10-13T00:41:26.493Z,3.28
2022-10-13T00:43:54.064Z,3.80
2022-10-13T00:46:22.838Z,4.15
2022-10-13T00:48:58.948Z,3.53
2022-10-13T00:51:32.082Z,3.40
2022-10-13T00:54:01.629Z,3.35
2022-10-13T00:56:29.807Z,3.30
2022-10-13T00:58:58.200Z,3.80
2022-10-13T01:01:26.055Z,3.22
2022-10-13T01:03:53.565Z,3.40
2022-10-13T01:06:23.801Z,3.30
2022-10-13T01:08:52.017Z,3.22
2022-10-13T01:11:31.553Z,3.53
2022-10-13T01:14:14.927Z,3.33
2022-10-13T01:17:00.819Z,3.62
2022-10-13T01:19:50.085Z,3.25
2022-10-13T01:22:37.413Z,3.40
2022-10-13T01:25:11.035Z,2.90
2022-10-13T01:28:14.236Z,2.85
2022-10-13T01:30:56.111Z,3.50
2022-10-13T01:33:49.936Z,3.12
2022-10-13T01:36:32.543Z,3.53
2022-10-13T01:39:38.130Z,3.25
2022-10-13T01:42:18.159Z,3.40
2022-10-13T01:44:51.361Z,2.85
2022-10-13T01:47:20.751Z,3.58
2022-10-13T01:49:52.143Z,3.33
2022-10-13T01:52:23.943Z,3.30
2022-10-13T01:54:52.958Z,3.37
2022-10-13T01:57:38.753Z,3.60
2022-10-13T02:00:10.721Z,3.00
2022-10-13T02:02:56.316Z,3.42
2022-10-13T02:05:27.314Z,3.42
2022-10-13T02:08:23.907Z,3.37
2022-10-13T02:11:10.308Z,3.35
2022-10-13T02:13:41.552Z,3.75
2022-10-13T02:16:11.138Z,3.47
2022-10-13T02:18:38.705Z,3.58
2022-10-13T02:21:06.668Z,3.92
2022-10-13T02:23:35.032Z,3.92
2022-10-13T02:26:03.371Z,4.05
2022-10-13T02:28:31.279Z,3.40
2022-10-13T02:30:59.208Z,3.72
2022-10-13T02:33:26.846Z,3.85
2022-10-13T02:35:54.408Z,3.67
2022-10-13T02:38:23.214Z,3.28
2022-10-13T02:40:51.017Z,4.57
2022-10-13T02:43:18.698Z,3.92
2022-10-13T02:45:46.532Z,5.00
2022-10-13T02:48:14.118Z,4.12
2022-10-13T02:50:41.838Z,4.35
2022-10-13T02:53:09.635Z,4.00
2022-10-13T02:55:37.173Z,4.25
2022-10-13T02:58:04.765Z,3.78
2022-10-13T03:00:32.691Z,4.20
2022-10-13T03:03:00.311Z,3.90
2022-10-13T03:05:27.877Z,4.15
2022-10-13T03:07:56.134Z,3.40
2022-10-13T03:10:23.900Z,3.72
2022-10-13T03:12:52.358Z,3.90
2022-10-13T03:15:20.220Z,3.85
2022-10-13T03:17:49.249Z,3.83
2022-10-13T03:20:17.416Z,3.70
2022-10-13T03:22:49.529Z,3.80
2022-10-13T03:25:17.627Z,3.72
2022-10-13T03:27:45.470Z,3.50
2022-10-13T03:30:13.422Z,3.72
2022-10-13T03:32:40.997Z,4.22
2022-10-13T03:35:09.191Z,4.22
2022-10-13T03:37:36.796Z,3.83
2022-10-13T03:40:04.878Z,3.80
2022-10-13T03:42:35.165Z,4.03
2022-10-13T03:45:04.078Z,3.60
2022-10-13T03:47:37.679Z,3.70
2022-10-13T03:50:06.230Z,3.58
2022-10-13T03:52:34.255Z,3.83
2022-10-13T03:55:01.938Z,3.58
2022-10-13T03:57:29.640Z,3.53
2022-10-13T03:59:58.131Z,3.97
2022-10-13T04:02:27.519Z,4.30
2022-10-13T04:04:55.752Z,4.50
2022-10-13T04:07:23.405Z,5.10
2022-10-13T04:09:52.255Z,4.53
2022-10-13T04:12:21.261Z,5.03
2022-10-13T04:14:48.988Z,3.72
2022-10-13T04:17:16.593Z,4.70
2022-10-13T04:19:44.750Z,3.72
2022-10-13T04:22:12.335Z,4.00
2022-10-13T04:24:41.720Z,4.10
2022-10-13T04:27:10.231Z,3.87
2022-10-13T04:29:37.990Z,4.20
2022-10-13T04:32:05.470Z,4.10
2022-10-13T04:34:33.419Z,4.12
2022-10-13T04:37:01.148Z,4.30
2022-10-13T04:39:28.757Z,4.25
2022-10-13T04:41:56.625Z,4.28
2022-10-13T04:44:24.235Z,4.35
2022-10-13T04:46:51.723Z,3.97
2022-10-13T04:49:20.306Z,4.32
2022-10-13T04:51:47.841Z,4.43
2022-10-13T04:54:15.444Z,5.20
2022-10-13T04:56:45.702Z,5.60
2022-10-13T04:59:13.607Z,5.15
2022-10-13T05:01:41.349Z,5.65
2022-10-13T05:04:11.602Z,5.05
2022-10-13T05:07:05.433Z,5.50
2022-10-13T05:09:30.098Z,6.82
2022-10-13T05:11:57.844Z,5.93
2022-10-13T05:14:25.684Z,6.55
2022-10-13T05:16:53.584Z,7.10
2022-10-13T05:19:21.130Z,4.90
2022-10-13T05:21:50.102Z,4.78
2022-10-13T05:24:18.109Z,4.20
2022-10-13T05:26:47.881Z,5.10
2022-10-13T05:29:15.434Z,4.65
2022-10-13T05:31:43.378Z,5.97
2022-10-13T05:34:11.318Z,6.95
2022-10-13T05:36:39.102Z,4.95
2022-10-13T05:39:08.416Z,4.70
2022-10-13T05:41:36.075Z,4.53
2022-10-13T05:44:07.811Z,4.37
2022-10-13T05:46:40.779Z,5.57
2022-10-13T05:49:08.301Z,5.95
2022-10-13T05:51:45.997Z,5.28
2022-10-13T05:54:21.619Z,4.90
2022-10-13T05:56:57.398Z,4.28
2022-10-13T05:59:29.066Z,4.72
2022-10-13T06:01:57.373Z,4.68
2022-10-13T06:04:35.857Z,4.68
2022-10-13T06:07:03.799Z,4.90
2022-10-13T06:09:35.742Z,4.60
2022-10-13T06:12:04.305Z,6.30
2022-10-13T06:14:32.154Z,6.03
2022-10-13T06:17:00.289Z,6.03
2022-10-13T06:19:27.907Z,5.10
2022-10-13T06:21:58.855Z,5.55
2022-10-13T06:24:28.769Z,5.32
2022-10-13T06:26:56.906Z,5.00
2022-10-13T06:29:24.414Z,4.85
2022-10-13T06:31:51.967Z,5.47
2022-10-13T06:34:19.902Z,5.57
2022-10-13T06:36:47.488Z,4.60
2022-10-13T06:39:15.079Z,4.70
2022-10-13T06:41:42.933Z,4.70
2022-10-13T06:44:11.229Z,4.40
2022-10-13T06:46:38.726Z,4.93
2022-10-13T06:49:06.602Z,4.65
2022-10-13T06:51:34.147Z,4.85
2022-10-13T06:54:01.776Z,4.80
2022-10-13T06:56:31.571Z,4.45
2022-10-13T06:58:59.483Z,4.95
2022-10-13T07:01:27.161Z,4.90
2022-10-13T07:03:55.101Z,5.03
2022-10-13T07:06:23.604Z,5.10
2022-10-13T07:08:51.586Z,4.95
2022-10-13T07:11:20.270Z,4.70
2022-10-13T07:13:49.140Z,5.50
2022-10-13T07:16:17.954Z,5.03
2022-10-13T07:18:48.120Z,6.43
2022-10-13T07:21:15.677Z,6.03
2022-10-13T07:23:43.419Z,5.00
2022-10-13T07:26:14.044Z,4.90
2022-10-13T07:28:42.523Z,5.17
2022-10-13T07:31:16.941Z,4.57
2022-10-13T07:33:47.712Z,5.20
2022-10-13T07:36:17.724Z,4.97
2022-10-13T07:38:46.423Z,5.07
2022-10-13T07:41:14.364Z,5.47
2022-10-13T07:43:42.379Z,6.18
2022-10-13T07:46:13.067Z,5.30
2022-10-13T07:48:40.940Z,5.65
2022-10-13T07:51:12.934Z,6.00
2022-10-13T07:53:42.856Z,5.43
2022-10-13T07:56:12.400Z,7.03
2022-10-13T07:58:42.978Z,10.00
2022-10-13T08:01:11.537Z,6.30
2022-10-13T08:03:42.920Z,6.87
2022-10-13T08:06:14.981Z,4.97
2022-10-13T08:08:42.767Z,4.43
2022-10-13T08:11:16.629Z,4.60
2022-10-13T08:13:50.580Z,5.10
2022-10-13T08:16:21.042Z,4.40
2022-10-13T08:18:49.480Z,4.80
2022-10-13T08:24:09.202Z,4.15
2022-10-13T08:26:36.943Z,4.80
2022-10-13T08:31:53.988Z,4.60
2022-10-13T08:34:25.130Z,4.22
2022-10-13T08:36:56.375Z,3.67
2022-10-13T08:41:52.491Z,4.28
2022-10-13T08:45:10.902Z,3.90
2022-10-13T08:47:28.065Z,4.00
2022-10-13T08:50:00.688Z,4.30
2022-10-13T08:52:43.420Z,3.67
2022-10-13T08:55:24.993Z,4.12
2022-10-13T08:57:53.006Z,3.80
2022-10-13T09:00:22.562Z,3.45
2022-10-13T09:02:51.268Z,3.47
2022-10-13T09:05:27.553Z,3.37
2022-10-13T09:10:27.332Z,3.40
2022-10-13T09:12:56.086Z,6.00
2022-10-13T09:15:24.376Z,5.47
2022-10-13T09:18:13.235Z,3.95
2022-10-13T09:20:41.761Z,3.47
2022-10-13T09:23:21.388Z,3.70
2022-10-13T09:25:51.665Z,3.70
2022-10-13T09:28:22.745Z,3.80
2022-10-13T09:31:09.151Z,3.03
2022-10-13T09:33:39.331Z,3.12
2022-10-13T09:36:16.554Z,3.10
2022-10-13T09:39:14.412Z,3.03
2022-10-13T09:41:45.055Z,3.20
2022-10-13T09:44:30.514Z,2.97
2022-10-13T09:47:01.031Z,3.03
2022-10-13T09:49:37.793Z,2.50
2022-10-13T09:52:12.082Z,3.30
2022-10-13T09:54:56.961Z,3.00
2022-10-13T09:57:27.743Z,3.10
2022-10-13T10:00:14.723Z,3.20
2022-10-13T10:03:03.272Z,3.47
2022-10-13T10:06:15.253Z,2.97
2022-10-13T10:09:06.519Z,3.12
2022-10-13T10:11:39.843Z,3.03
2022-10-13T10:14:17.568Z,3.17
2022-10-13T10:16:52.855Z,3.35
2022-10-13T10:19:38.210Z,3.05
2022-10-13T10:22:26.994Z,2.80
2022-10-13T10:25:10.016Z,3.28
2022-10-13T10:27:43.763Z,3.20
2022-10-13T10:30:17.353Z,3.67
2022-10-13T10:32:50.826Z,3.17
2022-10-13T10:35:37.169Z,3.35
2022-10-13T10:38:31.715Z,3.50
2022-10-13T10:41:43.044Z,3.53
2022-10-13T10:46:54.820Z,3.28
2022-10-13T10:49:34.589Z,3.60
2022-10-13T10:52:08.477Z,3.58
2022-10-13T10:54:54.319Z,3.17
2022-10-13T10:57:33.630Z,3.33
2022-10-13T11:00:05.966Z,3.67
2022-10-13T11:02:46.495Z,3.12
2022-10-13T11:05:15.202Z,3.37
2022-10-13T11:07:43.117Z,4.35
2022-10-13T11:10:13.489Z,3.70
2022-10-13T11:13:01.196Z,4.10
2022-10-13T11:15:41.406Z,2.87
2022-10-13T11:18:46.546Z,3.47
2022-10-13T11:21:19.310Z,2.97
2022-10-13T11:23:49.561Z,3.40
2022-10-13T11:26:31.222Z,3.60
2022-10-13T11:28:59.793Z,3.22
2022-10-13T11:31:48.030Z,3.50
2022-10-13T11:34:32.252Z,3.62
2022-10-13T11:37:02.298Z,3.65
2022-10-13T11:39:59.580Z,3.40
2022-10-13T11:42:56.915Z,3.42
2022-10-13T11:45:59.597Z,3.15
2022-10-13T11:51:16.598Z,4.00
2022-10-13T11:54:00.502Z,3.72
2022-10-13T11:56:47.461Z,3.60
2022-10-13T11:59:27.187Z,3.75
2022-10-13T12:01:59.964Z,3.12
2022-10-13T12:04:28.538Z,3.35
2022-10-13T12:07:00.483Z,4.05
2022-10-13T12:09:31.450Z,3.70
2022-10-13T12:12:12.584Z,3.60
2022-10-13T12:14:45.775Z,3.40
2022-10-13T12:17:27.726Z,3.20
2022-10-13T12:20:01.290Z,3.58
2022-10-13T12:22:29.407Z,3.58
2022-10-13T12:25:02.912Z,2.92
2022-10-13T12:27:33.224Z,3.17
2022-10-13T12:30:02.831Z,3.08
2022-10-13T12:32:34.361Z,3.25
2022-10-13T12:35:30.358Z,3.45
2022-10-13T12:38:01.579Z,3.10
2022-10-13T12:40:29.834Z,3.42
2022-10-13T12:42:57.675Z,3.53
2022-10-13T12:45:31.570Z,3.10
2022-10-13T12:47:59.530Z,3.30
2022-10-13T12:50:29.720Z,3.25
2022-10-13T12:53:09.708Z,3.40
2022-10-13T12:55:50.613Z,3.60
2022-10-13T12:58:34.751Z,3.30
2022-10-13T13:01:24.478Z,3.60
2022-10-13T13:04:21.290Z,3.37
2022-10-13T13:07:25.182Z,3.42
2022-10-13T13:10:18.842Z,3.45
2022-10-13T13:12:49.020Z,3.65
2022-10-13T13:15:19.390Z,3.22
2022-10-13T13:20:32.587Z,3.30
2022-10-13T13:23:00.813Z,3.40
2022-10-13T13:25:28.554Z,3.30
2022-10-13T13:27:56.625Z,3.65
2022-10-13T13:30:24.602Z,3.97
2022-10-13T13:32:52.097Z,3.67
2022-10-13T13:35:19.731Z,3.87
2022-10-13T13:37:50.644Z,3.70
2022-10-13T13:40:24.249Z,3.80
2022-10-13T13:42:52.564Z,3.95
2022-10-13T13:45:22.494Z,4.07
2022-10-13T13:47:50.699Z,4.40
2022-10-13T13:50:25.894Z,4.40
2022-10-13T13:52:57.134Z,4.55
2022-10-13T13:55:26.363Z,4.07
2022-10-13T13:57:53.909Z,5.30
2022-10-13T14:00:22.048Z,4.43
2022-10-13T14:02:51.328Z,4.80
2022-10-13T14:05:18.954Z,4.90
2022-10-13T14:07:46.625Z,4.78
2022-10-13T14:10:14.751Z,4.53
2022-10-13T14:12:43.278Z,4.82
2022-10-13T14:15:11.121Z,4.72
2022-10-13T14:17:39.118Z,4.72
2022-10-13T14:20:07.280Z,4.90
2022-10-13T14:25:07.451Z,4.87
2022-10-13T14:27:35.373Z,5.35
2022-10-13T14:30:05.731Z,5.78
2022-10-13T14:32:34.160Z,5.20
2022-10-13T14:35:01.827Z,5.62
2022-10-13T14:37:33.351Z,5.43
2022-10-13T14:40:01.778Z,5.43
2022-10-13T14:42:29.518Z,5.30
2022-10-13T14:44:57.047Z,6.97
2022-10-13T14:47:24.934Z,5.45
2022-10-13T14:49:52.530Z,6.57
2022-10-13T14:52:20.048Z,6.37
2022-10-13T14:54:48.004Z,5.97
2022-10-13T14:57:16.268Z,5.68
2022-10-13T14:59:48.701Z,5.70
2022-10-13T15:02:16.993Z,5.47
2022-10-13T15:04:50.421Z,5.68
2022-10-13T15:07:18.867Z,5.72
2022-10-13T15:09:52.971Z,5.60
2022-10-13T15:12:32.009Z,6.30
2022-10-13T15:14:59.627Z,6.10
2022-10-13T15:17:28.022Z,7.40
2022-10-13T15:19:56.028Z,6.68
2022-10-13T15:22:23.753Z,6.50
2022-10-13T15:24:51.536Z,7.20
2022-10-13T15:27:19.430Z,6.75
2022-10-13T15:29:47.047Z,7.65
2022-10-13T15:32:18.414Z,10.93
2022-10-13T15:34:49.302Z,12.23
2022-10-13T15:37:16.932Z,13.57
2022-10-13T15:39:44.916Z,11.82
2022-10-13T15:42:12.762Z,9.05
2022-10-13T15:45:08.168Z,9.30
2022-10-13T15:47:28.208Z,8.18
2022-10-13T15:49:56.129Z,8.60
2022-10-13T15:52:24.264Z,7.55
2022-10-13T15:54:52.325Z,8.05
2022-10-13T15:57:19.912Z,7.82
2022-10-13T15:59:47.447Z,8.13
2022-10-13T16:02:16.717Z,8.57
2022-10-13T16:04:44.816Z,8.80
2022-10-13T16:07:12.352Z,8.45
2022-10-13T16:09:39.915Z,8.48
2022-10-13T16:12:07.821Z,8.50
2022-10-13T16:14:35.327Z,8.18
2022-10-13T16:17:03.854Z,7.62
2022-10-13T16:19:31.696Z,7.12
2022-10-13T16:21:59.278Z,8.27
2022-10-13T16:24:26.779Z,7.97
2022-10-13T16:26:54.627Z,8.27
2022-10-13T16:29:24.170Z,8.07
2022-10-13T16:31:51.816Z,7.60
2022-10-13T16:34:21.369Z,7.43
2022-10-13T16:36:49.747Z,8.35
2022-10-13T16:39:17.299Z,9.38
2022-10-13T16:41:45.232Z,11.05
2022-10-13T16:44:13.288Z,10.38
2022-10-13T16:46:42.390Z,8.35
2022-10-13T16:49:11.385Z,8.30
2022-10-13T16:51:38.945Z,7.35
2022-10-13T16:54:06.519Z,7.53
2022-10-13T16:56:34.374Z,6.97
2022-10-13T16:59:04.724Z,6.50
2022-10-13T17:01:33.676Z,6.93
2022-10-13T17:04:01.709Z,6.32
2022-10-13T17:06:29.758Z,6.12
2022-10-13T17:08:59.047Z,6.72
2022-10-13T17:11:30.101Z,6.60
2022-10-13T17:16:28.095Z,6.07
2022-10-13T17:18:56.324Z,6.90
2022-10-13T17:21:32.024Z,6.22
2022-10-13T17:23:59.861Z,6.78
2022-10-13T17:26:27.515Z,6.78
2022-10-13T17:28:55.650Z,6.85
2022-10-13T17:31:24.481Z,7.35
2022-10-13T17:33:52.546Z,6.68
2022-10-13T17:36:25.897Z,6.75
2022-10-13T17:38:55.977Z,6.53
2022-10-13T17:41:24.358Z,6.20
2022-10-13T17:43:52.641Z,6.35
2022-10-13T17:46:36.221Z,6.70
2022-10-13T17:49:07.149Z,7.07
2022-10-13T17:51:35.188Z,7.35
2022-10-13T17:54:03.448Z,6.97
2022-10-13T17:56:31.678Z,7.62
2022-10-13T17:59:01.852Z,7.12
2022-10-13T18:01:32.782Z,7.30
2022-10-13T18:04:04.146Z,7.50
2022-10-13T18:06:38.612Z,7.62
2022-10-13T18:09:15.864Z,7.60
2022-10-13T18:11:49.677Z,7.85
2022-10-13T18:14:23.500Z,8.20
2022-10-13T18:16:52.234Z,7.65
2022-10-13T18:19:21.595Z,6.97
2022-10-13T18:21:49.618Z,7.97
2022-10-13T18:24:17.359Z,8.85
2022-10-13T18:26:45.937Z,8.90
2022-10-13T18:29:13.590Z,10.43
2022-10-13T18:31:42.038Z,12.02
2022-10-13T18:34:15.554Z,10.45
2022-10-13T18:36:48.278Z,11.12
2022-10-13T18:39:19.350Z,11.35
2022-10-13T18:41:50.104Z,10.98
2022-10-13T18:44:19.129Z,13.65
2022-10-13T18:46:50.403Z,12.15
2022-10-13T18:49:21.463Z,12.55
2022-10-13T18:51:52.427Z,14.98
2022-10-13T18:54:20.298Z,13.90
2022-10-13T18:56:47.936Z,13.73
2022-10-13T18:59:16.967Z,14.98
2022-10-13T19:01:45.182Z,16.27
2022-10-13T19:04:14.785Z,16.75
2022-10-13T19:06:43.413Z,16.17
2022-10-13T19:09:13.667Z,16.90
2022-10-13T19:11:41.787Z,16.67
2022-10-13T19:14:12.074Z,16.27
2022-10-13T19:16:42.034Z,16.10
2022-10-13T19:19:09.571Z,15.20
2022-10-13T19:21:38.392Z,16.05
2022-10-13T19:24:07.825Z,15.05
2022-10-13T19:26:37.038Z,15.32
2022-10-13T19:29:10.892Z,15.75
2022-10-13T19:31:41.473Z,14.80
2022-10-13T19:34:10.822Z,16.00
2022-10-13T19:36:44.193Z,14.85
2022-10-13T19:39:23.421Z,14.63
2022-10-13T19:41:52.881Z,13.62
2022-10-13T19:44:21.907Z,14.40
2022-10-13T19:46:50.240Z,15.10
2022-10-13T19:49:20.695Z,15.07
2022-10-13T19:51:49.773Z,14.55
2022-10-13T19:54:19.036Z,13.90
2022-10-13T19:56:48.124Z,13.95
2022-10-13T19:59:17.599Z,13.90
2022-10-13T20:01:45.344Z,13.43
2022-10-13T20:04:14.889Z,13.15
2022-10-13T20:06:44.448Z,13.55
2022-10-13T20:09:12.623Z,13.20
2022-10-13T20:11:40.585Z,13.10
2022-10-13T20:14:08.152Z,13.00
2022-10-13T20:16:37.767Z,13.15
2022-10-13T20:19:06.685Z,12.82
2022-10-13T20:21:34.236Z,12.50
2022-10-13T20:24:01.796Z,13.43
2022-10-13T20:26:29.654Z,14.07
2022-10-13T20:28:58.312Z,13.13
2022-10-13T20:31:26.872Z,13.68
2022-10-13T20:33:56.676Z,13.95
2022-10-13T20:36:26.370Z,14.13
2022-10-13T20:38:55.055Z,14.48
2022-10-13T20:41:27.989Z,15.30
2022-10-13T20:43:57.813Z,16.42
2022-10-13T20:46:26.079Z,15.48
2022-10-13T20:49:11.461Z,15.02
2022-10-13T20:51:40.964Z,14.48
2022-10-13T20:54:09.857Z,14.02
2022-10-13T20:56:37.720Z,14.15
2022-10-13T20:59:08.188Z,14.13
2022-10-13T21:01:37.006Z,13.90
2022-10-13T21:04:05.247Z,14.90
2022-10-13T21:06:33.970Z,14.40
2022-10-13T21:09:01.869Z,13.88
2022-10-13T21:11:30.007Z,14.02
2022-10-13T21:13:57.619Z,13.77
2022-10-13T21:16:28.149Z,13.35
2022-10-13T21:18:57.352Z,13.57
2022-10-13T21:21:28.324Z,13.40
2022-10-13T21:26:27.151Z,13.00
2022-10-13T21:28:55.595Z,13.10
2022-10-13T21:31:24.806Z,13.25
2022-10-13T21:33:53.048Z,12.82
2022-10-13T21:36:23.843Z,13.40
2022-10-13T21:41:22.436Z,13.27
2022-10-13T21:43:51.765Z,14.25
2022-10-13T21:46:29.330Z,13.68
2022-10-13T21:48:59.104Z,14.02
2022-10-13T21:51:31.470Z,13.05
2022-10-13T21:54:05.207Z,12.50
2022-10-13T21:56:34.351Z,12.73
2022-10-13T21:59:02.319Z,12.88
2022-10-13T22:01:30.127Z,13.18
2022-10-13T22:04:01.307Z,11.63
2022-10-13T22:06:31.710Z,13.18
2022-10-13T22:09:01.421Z,11.77
2022-10-13T22:11:31.719Z,11.35
2022-10-13T22:14:03.937Z,12.50
2022-10-13T22:16:35.127Z,12.50
2022-10-13T22:19:03.656Z,11.75
2022-10-13T22:21:35.042Z,11.12
2022-10-13T22:24:06.655Z,12.02
2022-10-13T22:29:05.552Z,12.18
2022-10-13T22:31:33.440Z,12.68
2022-10-13T22:34:06.168Z,11.90
2022-10-13T22:36:33.980Z,11.50
2022-10-13T22:39:03.072Z,11.50
2022-10-13T22:41:32.660Z,12.23
2022-10-13T22:44:01.417Z,11.18
2022-10-13T22:46:31.644Z,11.23
2022-10-13T22:49:00.442Z,12.25
2022-10-13T22:51:29.887Z,11.05
2022-10-13T22:53:58.537Z,11.30
2022-10-13T22:56:29.188Z,11.63
2022-10-13T22:59:03.386Z,10.73
2022-10-13T23:01:31.628Z,12.10
2022-10-13T23:03:59.974Z,11.63
2022-10-13T23:06:30.587Z,11.90
2022-10-13T23:11:34.291Z,11.77
2022-10-13T23:14:03.679Z,10.82
2022-10-13T23:16:31.979Z,12.55
2022-10-13T23:18:59.630Z,12.25
2022-10-13T23:21:29.068Z,11.82
2022-10-13T23:24:02.599Z,11.93
2022-10-13T23:26:31.389Z,12.70
2022-10-13T23:29:00.030Z,12.23
2022-10-13T23:31:28.580Z,11.48
2022-10-13T23:33:56.971Z,12.27
2022-10-13T23:36:27.858Z,11.98
2022-10-13T23:39:01.556Z,12.02
2022-10-13T23:41:29.927Z,11.95
2022-10-13T23:43:58.415Z,12.75
2022-10-13T23:46:26.148Z,12.55
2022-10-13T23:48:53.895Z,12.15
2022-10-13T23:51:23.456Z,11.75
2022-10-13T23:53:51.690Z,11.75
2022-10-13T23:56:19.837Z,12.13
2022-10-13T23:58:48.420Z,12.02
